Time;durP1;ratioP1;P1;durP2;ratioP2;P2;SDS_P1;SDS_P2;PMS_P1;PMS_P2;Temp;Humidity;BMP_temperature;BMP_pressure;BME280_temperature;BME280_humidity;BME280_pressure;Samples;Min_cycle;Max_cycle;Signal;HPM_P1;HPM_P2
2021/07/30 00:01:52;;;;;;;6.30;5.70;;;14.00;99.90;;;;;;4983869;28;20470;-57
2021/07/30 00:04:21;;;;;;;11.50;6.30;;;14.00;99.90;;;;;;4984269;28;20564;-57
2021/07/30 00:06:48;;;;;;;9.87;6.27;;;13.90;99.90;;;;;;4993311;28;20523;-57
2021/07/30 00:09:15;;;;;;;9.23;6.30;;;13.90;99.90;;;;;;4983852;28;20466;-57
2021/07/30 00:11:43;;;;;;;7.50;6.47;;;13.90;99.90;;;;;;4998712;28;20840;-57
2021/07/30 00:14:10;;;;;;;8.60;6.60;;;14.00;99.90;;;;;;4984387;28;20469;-57
2021/07/30 00:16:40;;;;;;;7.83;5.60;;;14.00;99.90;;;;;;4985154;28;20469;-57
2021/07/30 00:19:07;;;;;;;8.93;5.87;;;14.00;99.90;;;;;;4988101;28;20529;-57
2021/07/30 00:21:35;;;;;;;9.83;6.60;;;14.10;99.90;;;;;;4981252;28;20429;-58
2021/07/30 00:24:02;;;;;;;9.77;6.60;;;14.20;99.90;;;;;;4981624;28;20564;-58
2021/07/30 00:26:30;;;;;;;8.70;6.27;;;14.20;99.90;;;;;;4981581;28;20528;-58
2021/07/30 00:28:57;;;;;;;11.83;6.27;;;14.20;99.90;;;;;;4981316;28;20466;-58
2021/07/30 00:31:24;;;;;;;6.43;5.83;;;14.30;99.90;;;;;;4981283;28;20899;-58
2021/07/30 00:33:51;;;;;;;7.43;5.70;;;14.30;99.90;;;;;;4980930;28;20798;-57
2021/07/30 00:36:18;;;;;;;8.67;6.10;;;14.20;99.90;;;;;;4981611;28;20465;-57
2021/07/30 00:38:46;;;;;;;6.93;5.00;;;14.20;99.90;;;;;;4985820;28;20817;-58
2021/07/30 00:41:13;;;;;;;12.80;6.60;;;14.30;99.90;;;;;;5000991;28;20465;-57
2021/07/30 00:43:40;;;;;;;11.73;6.37;;;14.30;99.90;;;;;;5000980;28;20523;-57
2021/07/30 00:46:08;;;;;;;9.03;6.00;;;14.40;99.90;;;;;;5000669;28;20464;-57
2021/07/30 00:48:35;;;;;;;9.43;6.10;;;14.30;99.90;;;;;;5000804;28;20743;-58
2021/07/30 00:51:05;;;;;;;8.13;6.43;;;14.30;99.90;;;;;;5000420;28;20468;-57
2021/07/30 00:53:32;;;;;;;8.63;6.20;;;14.40;99.90;;;;;;4999976;28;20767;-56
2021/07/30 00:56:00;;;;;;;7.97;6.43;;;14.40;99.90;;;;;;5000083;28;20493;-57
2021/07/30 00:58:29;;;;;;;11.10;7.40;;;14.40;99.90;;;;;;5000125;28;20535;-58
2021/07/30 01:00:56;;;;;;;9.87;6.10;;;14.40;99.90;;;;;;5000365;28;20476;-57
2021/07/30 01:03:23;;;;;;;8.23;6.20;;;14.50;99.90;;;;;;5000755;28;20461;-58
2021/07/30 01:05:52;;;;;;;8.73;6.40;;;14.50;99.90;;;;;;4992158;28;20480;-57
2021/07/30 01:08:19;;;;;;;7.20;5.00;;;14.60;99.90;;;;;;4992467;28;20481;-58
2021/07/30 01:10:46;;;;;;;8.43;6.10;;;14.60;99.90;;;;;;4984879;28;20813;-58
2021/07/30 01:13:15;;;;;;;8.70;6.10;;;14.70;99.90;;;;;;4999437;28;20476;-58
2021/07/30 01:15:42;;;;;;;9.00;6.10;;;14.70;99.90;;;;;;4991512;28;20458;-58
2021/07/30 01:18:09;;;;;;;6.20;5.70;;;14.70;99.90;;;;;;4980522;28;20607;-58
2021/07/30 01:20:38;;;;;;;10.90;6.13;;;14.80;99.90;;;;;;4980586;28;20505;-58
2021/07/30 01:23:10;;;;;;;7.70;5.80;;;14.80;99.90;;;;;;4981932;28;20469;-58
2021/07/30 01:25:38;;;;;;;7.67;5.50;;;14.80;99.90;;;;;;4980477;28;20582;-56
2021/07/30 01:28:06;;;;;;;6.90;5.80;;;14.80;99.90;;;;;;4980678;28;20826;-58
2021/07/30 01:30:33;;;;;;;6.50;5.90;;;14.80;99.90;;;;;;4980528;28;20465;-58
2021/07/30 01:33:00;;;;;;;9.40;5.90;;;14.90;99.90;;;;;;4980020;28;20794;-55
2021/07/30 01:35:27;;;;;;;9.33;6.33;;;14.80;99.90;;;;;;4980488;28;20472;-58
2021/07/30 01:37:54;;;;;;;7.00;6.10;;;14.90;99.90;;;;;;4980040;28;20466;-58
2021/07/30 01:40:23;;;;;;;7.60;6.33;;;14.90;99.90;;;;;;4980516;28;20497;-56
2021/07/30 01:42:50;;;;;;;8.93;5.63;;;14.90;99.90;;;;;;4979954;28;20537;-58
2021/07/30 01:45:17;;;;;;;11.60;5.93;;;15.00;99.90;;;;;;4980149;28;20465;-58
2021/07/30 01:47:44;;;;;;;7.17;6.23;;;14.90;99.90;;;;;;4980510;28;20804;-58
2021/07/30 01:50:12;;;;;;;9.43;6.07;;;15.00;99.90;;;;;;4980535;28;20734;-58
2021/07/30 01:52:41;;;;;;;8.13;6.17;;;15.10;99.90;;;;;;4979564;28;20440;-58
2021/07/30 01:55:09;;;;;;;6.10;5.50;;;15.00;99.90;;;;;;4979924;28;20532;-58
2021/07/30 01:57:38;;;;;;;6.97;5.80;;;15.10;99.90;;;;;;4979523;28;21001;-58
2021/07/30 02:00:06;;;;;;;7.90;5.60;;;15.00;99.90;;;;;;4979436;28;20568;-58
2021/07/30 02:02:34;;;;;;;8.47;6.13;;;15.00;99.90;;;;;;4978491;28;20844;-58
2021/07/30 02:05:01;;;;;;;6.97;5.80;;;15.10;99.90;;;;;;4990644;28;20796;-58
2021/07/30 02:07:28;;;;;;;7.50;5.77;;;15.10;99.90;;;;;;4999015;28;20483;-58
2021/07/30 02:09:55;;;;;;;9.90;5.40;;;15.10;99.90;;;;;;4998342;28;20776;-58
2021/07/30 02:12:22;;;;;;;8.97;6.47;;;15.20;99.90;;;;;;4998813;28;20465;-58
2021/07/30 02:14:50;;;;;;;7.30;6.60;;;15.30;99.90;;;;;;4998865;28;20500;-58
2021/07/30 02:17:17;;;;;;;6.60;5.60;;;15.30;99.90;;;;;;4999139;28;20472;-58
2021/07/30 02:19:44;;;;;;;10.37;6.00;;;15.20;99.90;;;;;;4998554;28;20503;-58
2021/07/30 02:22:11;;;;;;;6.70;5.80;;;15.20;99.90;;;;;;4998909;28;20467;-57
2021/07/30 02:24:38;;;;;;;7.27;5.70;;;15.30;99.90;;;;;;4998351;28;20531;-58
2021/07/30 02:27:06;;;;;;;12.03;6.13;;;15.30;99.90;;;;;;4998868;28;20808;-58
2021/07/30 02:29:33;;;;;;;11.50;6.70;;;15.30;99.90;;;;;;4998641;28;20465;-58
2021/07/30 02:32:01;;;;;;;7.43;6.20;;;15.40;99.90;;;;;;4998798;28;20528;-57
2021/07/30 02:34:28;;;;;;;9.23;5.70;;;15.40;99.90;;;;;;4998998;28;20489;-57
2021/07/30 03:14:24;;;;;;;8.70;5.60;;;14.90;99.90;;;;;;5500368;23;20547;-57
2021/07/30 03:16:51;;;;;;;7.03;6.33;;;14.80;99.90;;;;;;4973059;28;20496;-57
2021/07/30 03:19:18;;;;;;;6.90;6.23;;;14.70;99.90;;;;;;4979028;28;20532;-57
2021/07/30 03:21:45;;;;;;;10.87;6.20;;;14.70;99.90;;;;;;4978524;28;20450;-57
2021/07/30 03:24:12;;;;;;;7.27;6.50;;;14.70;99.90;;;;;;4979144;28;20769;-57
2021/07/30 03:26:39;;;;;;;7.60;6.87;;;14.60;99.90;;;;;;4978643;28;20469;-56
2021/07/30 03:29:06;;;;;;;7.93;5.70;;;14.50;99.90;;;;;;4979025;28;20478;-58
2021/07/30 03:31:35;;;;;;;12.47;5.73;;;14.50;99.90;;;;;;4978207;28;20528;-57
2021/07/30 03:34:02;;;;;;;7.23;5.90;;;14.50;99.90;;;;;;4978643;28;20470;-56
2021/07/30 03:36:32;;;;;;;9.83;6.37;;;14.40;99.90;;;;;;4978460;28;20469;-53
2021/07/30 03:38:59;;;;;;;13.00;6.90;;;14.30;99.90;;;;;;4978307;28;20913;-54
2021/07/30 03:41:26;;;;;;;8.20;6.70;;;14.30;99.90;;;;;;4978050;28;20504;-54
2021/07/30 03:43:53;;;;;;;7.10;6.40;;;14.20;99.90;;;;;;4978514;28;20466;-55
2021/07/30 03:46:20;;;;;;;6.73;6.10;;;14.10;99.90;;;;;;4978364;28;20477;-57
2021/07/30 03:48:49;;;;;;;8.20;7.13;;;14.10;99.90;;;;;;4978713;28;20568;-57
2021/07/30 03:51:18;;;;;;;8.63;6.17;;;14.10;99.90;;;;;;4977989;28;20907;-53
2021/07/30 03:53:45;;;;;;;7.93;6.20;;;14.00;99.90;;;;;;4978196;28;20470;-57
2021/07/30 03:56:15;;;;;;;8.77;6.30;;;14.00;99.90;;;;;;4977984;28;20469;-55
2021/07/30 03:58:45;;;;;;;7.03;5.67;;;14.00;99.90;;;;;;4978801;28;20470;-57
2021/07/30 04:01:12;;;;;;;9.20;6.63;;;13.90;99.90;;;;;;4978307;28;20498;-55
2021/07/30 04:03:40;;;;;;;8.90;6.73;;;13.70;99.90;;;;;;4970817;28;20482;-51
2021/07/30 04:06:10;;;;;;;7.73;6.50;;;13.70;99.90;;;;;;4974777;28;20509;-52
2021/07/30 04:08:37;;;;;;;10.60;6.37;;;13.70;99.90;;;;;;4977705;28;20883;-56
2021/07/30 04:11:05;;;;;;;9.33;6.50;;;13.80;99.90;;;;;;4978191;28;20953;-55
2021/07/30 04:13:33;;;;;;;7.73;6.80;;;13.80;99.90;;;;;;4977507;28;20473;-57
2021/07/30 04:16:04;;;;;;;9.50;5.83;;;13.90;99.90;;;;;;4964761;28;20549;-51
2021/07/30 04:18:31;;;;;;;8.30;6.33;;;13.90;99.90;;;;;;4958369;29;20529;-54
2021/07/30 04:20:58;;;;;;;11.00;6.23;;;13.90;99.90;;;;;;4958385;29;20758;-56
2021/07/30 04:23:27;;;;;;;6.50;5.87;;;13.90;99.90;;;;;;4947893;29;20466;-54
2021/07/30 04:25:54;;;;;;;7.87;5.80;;;14.00;99.90;;;;;;4960421;28;20525;-51
2021/07/30 04:28:21;;;;;;;9.77;6.20;;;14.00;99.90;;;;;;4961851;29;20499;-57
2021/07/30 04:30:48;;;;;;;8.40;6.30;;;14.10;99.90;;;;;;4962275;29;20466;-58
2021/07/30 04:33:24;;;;;;;7.87;6.07;;;14.10;99.90;;;;;;4962112;29;20466;-55
2021/07/30 04:35:51;;;;;;;9.53;5.90;;;14.10;99.90;;;;;;4961851;29;20470;-58
2021/07/30 04:38:18;;;;;;;8.33;6.17;;;14.20;99.90;;;;;;4961799;29;20525;-58
2021/07/30 04:40:46;;;;;;;9.97;6.90;;;14.20;99.90;;;;;;4961408;29;20501;-56
2021/07/30 04:43:13;;;;;;;6.20;5.60;;;14.30;99.90;;;;;;4961223;29;20470;-58
2021/07/30 04:45:40;;;;;;;9.70;6.30;;;14.20;99.90;;;;;;4961227;29;20463;-58
2021/07/30 04:48:07;;;;;;;7.70;6.13;;;14.30;99.90;;;;;;4962174;29;20466;-51
2021/07/30 04:50:34;;;;;;;8.97;6.93;;;14.30;99.90;;;;;;4961644;29;20437;-55
2021/07/30 04:53:04;;;;;;;9.73;6.23;;;14.30;99.90;;;;;;4961978;29;20782;-55
2021/07/30 04:55:31;;;;;;;9.33;5.90;;;14.30;99.90;;;;;;4961638;29;20525;-54
2021/07/30 04:58:00;;;;;;;12.83;5.20;;;14.30;99.90;;;;;;4961520;29;20963;-58
2021/07/30 05:00:27;;;;;;;9.07;5.50;;;14.30;99.90;;;;;;4961117;29;20498;-57
2021/07/30 05:02:54;;;;;;;6.60;5.63;;;14.40;99.90;;;;;;4957497;28;20493;-57
2021/07/30 05:05:22;;;;;;;6.03;5.30;;;14.40;99.90;;;;;;4955498;28;20474;-57
2021/07/30 05:07:49;;;;;;;8.93;5.00;;;14.40;99.90;;;;;;4961132;29;20467;-58
2021/07/30 05:10:19;;;;;;;6.43;5.23;;;14.40;99.90;;;;;;4960341;29;20549;-54
2021/07/30 05:12:46;;;;;;;8.00;5.67;;;14.50;99.90;;;;;;4961388;29;20459;-53
2021/07/30 05:15:15;;;;;;;6.67;5.60;;;14.50;99.90;;;;;;4960767;28;20577;-55
2021/07/30 05:17:42;;;;;;;8.13;6.50;;;14.60;99.90;;;;;;4961576;29;20572;-54
2021/07/30 05:20:10;;;;;;;6.73;5.63;;;14.60;99.90;;;;;;4961070;29;20498;-55
2021/07/30 05:22:38;;;;;;;7.00;6.30;;;14.70;99.90;;;;;;4961146;29;20819;-58
2021/07/30 05:25:07;;;;;;;8.43;5.30;;;14.70;99.90;;;;;;4961243;29;20470;-58
2021/07/30 05:27:34;;;;;;;7.50;5.73;;;14.80;99.90;;;;;;4961348;29;20476;-58
2021/07/30 05:30:01;;;;;;;10.00;6.00;;;14.80;99.90;;;;;;4961099;29;20471;-58
2021/07/30 05:32:29;;;;;;;8.60;5.47;;;14.90;99.90;;;;;;4949321;29;20887;-56
2021/07/30 05:34:56;;;;;;;5.80;5.30;;;15.00;99.90;;;;;;4959826;29;20470;-57
2021/07/30 05:37:23;;;;;;;8.63;5.10;;;15.10;99.90;;;;;;4958578;28;20470;-55
2021/07/30 05:39:50;;;;;;;9.27;6.10;;;15.20;99.90;;;;;;4959018;29;20463;-58
2021/07/30 05:42:17;;;;;;;6.07;5.40;;;15.30;99.90;;;;;;4958850;29;20476;-53
2021/07/30 05:44:47;;;;;;;6.97;5.53;;;15.40;99.90;;;;;;4959662;29;20585;-52
2021/07/30 05:47:14;;;;;;;5.83;5.33;;;15.50;99.90;;;;;;4959534;29;20956;-54
2021/07/30 05:49:42;;;;;;;5.90;5.30;;;15.60;99.90;;;;;;4959811;29;20979;-55
2021/07/30 05:52:09;;;;;;;5.20;4.80;;;15.50;99.90;;;;;;4960341;29;20898;-51
2021/07/30 05:54:37;;;;;;;5.57;5.00;;;15.50;99.90;;;;;;4960717;29;20467;-57
2021/07/30 05:57:22;;;;;;;7.23;5.47;;;15.60;99.90;;;;;;4958619;29;20466;-55
2021/07/30 05:59:49;;;;;;;6.17;5.57;;;15.90;99.90;;;;;;4959614;29;20467;-55
2021/07/30 06:02:16;;;;;;;5.73;4.30;;;16.00;99.90;;;;;;4958331;29;20529;-51
2021/07/30 06:04:47;;;;;;;6.33;5.20;;;16.20;99.90;;;;;;4949205;28;20479;-53
2021/07/30 06:07:14;;;;;;;5.43;4.60;;;16.40;99.90;;;;;;4958581;29;20930;-51
2021/07/30 06:09:41;;;;;;;6.00;5.40;;;16.50;99.90;;;;;;4959720;29;20525;-54
2021/07/30 06:12:09;;;;;;;6.77;5.43;;;16.70;99.90;;;;;;4960772;29;20521;-53
2021/07/30 06:14:36;;;;;;;6.10;5.10;;;17.00;99.90;;;;;;4960114;28;20522;-58
2021/07/30 06:17:04;;;;;;;5.20;4.77;;;17.20;99.90;;;;;;4960519;29;20588;-58
2021/07/30 06:19:31;;;;;;;4.93;4.53;;;17.30;99.90;;;;;;4960377;29;20904;-57
2021/07/30 06:21:59;;;;;;;7.47;4.80;;;17.60;99.90;;;;;;4959701;29;20487;-55
2021/07/30 06:24:26;;;;;;;6.43;4.97;;;17.90;99.90;;;;;;4960447;29;20473;-57
2021/07/30 06:26:53;;;;;;;7.00;4.33;;;18.20;99.90;;;;;;4960055;29;20529;-56
2021/07/30 06:29:20;;;;;;;7.20;4.87;;;18.50;99.90;;;;;;4960326;29;20467;-54
2021/07/30 06:31:47;;;;;;;5.43;4.90;;;18.70;99.90;;;;;;4960035;29;20462;-55
2021/07/30 06:34:15;;;;;;;5.50;4.70;;;18.90;99.90;;;;;;4960057;29;20466;-55
2021/07/30 06:36:42;;;;;;;5.20;4.30;;;19.00;99.90;;;;;;4960507;29;20462;-52
2021/07/30 06:39:10;;;;;;;4.90;4.13;;;19.00;99.90;;;;;;4959711;29;20459;-56
2021/07/30 06:41:37;;;;;;;4.73;4.27;;;19.20;99.90;;;;;;4960030;29;20498;-56
2021/07/30 07:22:02;;;;;;;3.63;3.27;;;20.40;87.60;;;;;;5232000;23;20823;-56
2021/07/30 07:24:29;;;;;;;8.00;4.40;;;20.50;89.10;;;;;;4996950;28;20460;-55
2021/07/30 07:26:56;;;;;;;4.90;3.77;;;20.40;89.10;;;;;;4998044;28;20457;-56
2021/07/30 07:29:23;;;;;;;3.97;3.40;;;20.80;90.20;;;;;;4997588;28;20460;-57
2021/07/30 07:31:50;;;;;;;5.43;3.60;;;21.20;88.70;;;;;;4997495;28;20464;-57
2021/07/30 07:34:17;;;;;;;5.67;3.50;;;21.50;84.00;;;;;;4997342;28;20472;-54
2021/07/30 07:36:48;;;;;;;4.37;3.97;;;21.30;81.60;;;;;;4997360;28;20471;-51
2021/07/30 07:39:16;;;;;;;5.00;3.97;;;21.50;82.20;;;;;;5005727;28;20459;-54
2021/07/30 07:41:44;;;;;;;4.10;3.37;;;21.70;79.20;;;;;;5017560;28;20844;-53
2021/07/30 07:44:16;;;;;;;4.93;4.27;;;21.80;80.60;;;;;;5018014;28;20456;-57
2021/07/30 07:46:44;;;;;;;4.17;3.53;;;22.00;79.60;;;;;;5017903;28;20456;-51
2021/07/30 07:49:13;;;;;;;4.70;3.67;;;21.70;77.10;;;;;;5017876;28;20460;-49
2021/07/30 07:51:41;;;;;;;6.53;4.37;;;21.70;77.70;;;;;;5017180;28;20467;-55
2021/07/30 07:54:08;;;;;;;6.17;4.47;;;21.90;79.50;;;;;;5017615;28;20472;-53
2021/07/30 07:56:39;;;;;;;3.67;3.30;;;22.20;76.10;;;;;;5017292;28;20467;-53
2021/07/30 07:59:07;;;;;;;5.33;3.80;;;22.50;75.90;;;;;;5016934;28;20538;-54
2021/07/30 08:01:34;;;;;;;6.50;4.00;;;22.60;73.60;;;;;;5019640;28;20492;-50
2021/07/30 08:04:02;;;;;;;4.03;3.43;;;22.90;74.70;;;;;;5000523;28;20472;-55
2021/07/30 08:06:29;;;;;;;4.07;3.37;;;23.20;73.50;;;;;;5000245;28;20463;-50
2021/07/30 08:08:56;;;;;;;3.70;3.37;;;23.50;72.70;;;;;;5001015;28;20457;-51
2021/07/30 08:11:25;;;;;;;3.90;3.60;;;23.80;71.80;;;;;;5001366;28;20467;-57
2021/07/30 08:14:00;;;;;;;4.30;3.90;;;23.80;69.30;;;;;;5001166;28;20889;-57
2021/07/30 08:16:27;;;;;;;5.50;3.63;;;23.70;66.80;;;;;;5001089;28;20468;-55
2021/07/30 08:18:57;;;;;;;4.10;3.10;;;23.70;69.20;;;;;;5001109;28;20511;-54
2021/07/30 08:21:26;;;;;;;4.50;3.80;;;24.20;68.10;;;;;;4999887;28;20496;-49
2021/07/30 08:23:53;;;;;;;6.00;3.70;;;24.10;64.60;;;;;;5003349;28;20503;-56
2021/07/30 08:26:23;;;;;;;4.60;4.10;;;24.20;67.40;;;;;;4993158;28;20909;-57
2021/07/30 08:28:50;;;;;;;6.33;3.90;;;24.50;65.40;;;;;;4991450;28;20473;-57
2021/07/30 08:31:30;;;;;;;5.70;3.90;;;24.10;64.60;;;;;;4981019;28;20457;-54
2021/07/30 08:33:57;;;;;;;4.10;3.73;;;24.40;64.80;;;;;;4981051;28;20464;-53
2021/07/30 08:36:24;;;;;;;5.60;3.17;;;24.10;62.30;;;;;;4980972;28;20879;-56
2021/07/30 08:38:51;;;;;;;4.20;3.80;;;24.20;63.60;;;;;;4980674;28;20521;-53
2021/07/30 08:41:22;;;;;;;4.73;3.90;;;24.50;63.20;;;;;;5010558;28;20470;-57
2021/07/30 08:43:53;;;;;;;4.40;4.00;;;24.50;60.50;;;;;;5021698;28;20970;-57
2021/07/30 08:46:25;;;;;;;4.83;3.90;;;24.70;64.40;;;;;;5020126;28;20464;-57
2021/07/30 08:48:53;;;;;;;4.77;3.83;;;24.40;60.80;;;;;;5020405;28;20555;-54
2021/07/30 08:51:21;;;;;;;4.17;3.77;;;24.20;61.60;;;;;;5020200;28;20464;-58
2021/07/30 08:53:48;;;;;;;5.10;3.67;;;24.10;61.00;;;;;;5002165;28;20469;-57
2021/07/30 08:56:19;;;;;;;5.33;3.53;;;24.40;62.70;;;;;;4999239;28;20997;-51
2021/07/30 08:58:50;;;;;;;4.27;3.80;;;24.90;62.90;;;;;;5000529;28;20465;-57
2021/07/30 09:01:19;;;;;;;4.50;4.10;;;25.50;60.50;;;;;;5000138;28;20551;-56
2021/07/30 09:03:50;;;;;;;5.30;4.27;;;25.50;58.80;;;;;;5001958;28;20539;-54
2021/07/30 09:06:20;;;;;;;4.40;4.00;;;25.10;59.00;;;;;;4980025;28;20470;-56
2021/07/30 09:09:04;;;;;;;5.03;3.50;;;25.20;59.20;;;;;;4984032;28;20453;-58
2021/07/30 09:11:33;;;;;;;5.80;4.43;;;25.20;59.00;;;;;;5000506;28;20476;-55
2021/07/30 09:14:04;;;;;;;4.53;3.60;;;25.00;58.40;;;;;;5009367;28;20463;-57
2021/07/30 09:16:32;;;;;;;4.27;3.87;;;25.20;60.50;;;;;;5014978;28;20954;-58
2021/07/30 09:19:12;;;;;;;9.30;4.33;;;25.50;59.40;;;;;;5020029;28;20464;-57
2021/07/30 09:21:39;;;;;;;5.33;4.27;;;25.70;58.70;;;;;;5001050;28;21002;-57
2021/07/30 09:24:07;;;;;;;4.93;4.13;;;25.50;58.70;;;;;;5000360;28;20461;-58
2021/07/30 09:26:42;;;;;;;3.97;3.57;;;24.90;58.80;;;;;;5005486;28;20777;-57
2021/07/30 09:29:13;;;;;;;3.63;3.30;;;25.10;60.60;;;;;;5008649;28;20460;-58
2021/07/30 09:31:49;;;;;;;5.40;3.70;;;25.40;59.20;;;;;;5006647;28;20515;-58
2021/07/30 09:34:20;;;;;;;4.60;4.30;;;25.60;58.50;;;;;;5010712;28;20465;-58
2021/07/30 10:13:50;;;;;;;5.50;5.00;;;26.30;58.10;;;;;;3177904;23;20488;-57
2021/07/30 10:16:19;;;;;;;5.27;4.83;;;26.40;57.20;;;;;;4972807;28;20462;-56
2021/07/30 10:18:50;;;;;;;5.10;4.60;;;26.80;56.90;;;;;;4990450;28;20798;-54
2021/07/30 10:21:22;;;;;;;4.70;4.30;;;26.50;56.70;;;;;;5007936;28;20498;-58
2021/07/30 10:23:53;;;;;;;5.40;4.90;;;26.50;57.90;;;;;;4998771;28;20528;-58
2021/07/30 10:26:27;;;;;;;5.93;4.67;;;26.40;58.10;;;;;;4986589;28;20470;-58
2021/07/30 10:29:00;;;;;;;7.30;4.67;;;25.50;57.10;;;;;;4988816;28;20853;-56
2021/07/30 10:31:49;;;;;;;7.00;4.77;;;24.90;58.70;;;;;;4987671;28;20523;-54
2021/07/30 10:34:18;;;;;;;6.10;5.57;;;24.70;60.40;;;;;;4991398;28;20988;-53
2021/07/30 10:36:46;;;;;;;5.20;4.70;;;25.10;59.40;;;;;;4988014;28;20919;-53
2021/07/30 10:39:21;;;;;;;5.50;4.50;;;25.80;58.40;;;;;;4984316;28;20953;-53
2021/07/30 10:42:11;;;;;;;5.83;5.00;;;26.60;57.70;;;;;;4993065;28;20574;-57
2021/07/30 10:45:11;;;;;;;9.73;4.43;;;27.10;56.20;;;;;;4981031;28;20508;-56
2021/07/30 10:47:48;;;;;;;5.60;5.00;;;27.30;56.00;;;;;;4989306;28;20469;-52
2021/07/30 10:50:43;;;;;;;6.13;5.07;;;26.80;54.60;;;;;;4989262;28;20535;-56
2021/07/30 10:53:47;;;;;;;5.33;4.40;;;26.10;55.20;;;;;;4991313;28;20462;-50
2021/07/30 10:56:51;;;;;;;4.90;4.53;;;26.20;57.20;;;;;;4992952;28;20468;-57
2021/07/30 10:59:24;;;;;;;6.70;4.70;;;27.30;54.70;;;;;;4999317;28;20742;-57
2021/07/30 11:01:59;;;;;;;4.90;4.50;;;26.90;54.60;;;;;;5002562;28;20499;-57
2021/07/30 11:04:28;;;;;;;5.00;4.70;;;26.10;55.00;;;;;;4980450;28;21027;-55
2021/07/30 11:07:04;;;;;;;6.13;5.13;;;25.80;57.00;;;;;;4979522;28;20465;-55
2021/07/30 11:09:38;;;;;;;6.50;4.60;;;25.80;57.40;;;;;;4981681;28;20465;-50
2021/07/30 11:12:19;;;;;;;5.20;4.80;;;26.30;57.80;;;;;;4988100;28;20469;-58
2021/07/30 11:14:48;;;;;;;6.00;5.40;;;26.50;56.90;;;;;;4996554;28;20556;-53
2021/07/30 11:17:15;;;;;;;4.73;4.33;;;26.50;55.20;;;;;;4974108;28;20506;-57
2021/07/30 11:19:49;;;;;;;5.40;4.90;;;26.50;55.50;;;;;;4992578;28;20468;-57
2021/07/30 11:22:17;;;;;;;5.50;5.00;;;26.90;55.50;;;;;;4989404;28;21012;-56
2021/07/30 11:24:49;;;;;;;7.10;4.43;;;27.70;54.40;;;;;;4984894;28;20470;-58
2021/07/30 11:27:17;;;;;;;5.40;4.30;;;27.90;53.10;;;;;;4985631;28;20468;-59
2021/07/30 11:29:45;;;;;;;4.83;4.50;;;27.50;52.90;;;;;;4992463;28;20468;-59
2021/07/30 11:32:17;;;;;;;5.23;4.73;;;27.50;53.10;;;;;;4999453;28;20464;-58
2021/07/30 11:34:50;;;;;;;5.03;4.60;;;27.50;52.50;;;;;;4989442;28;20464;-54
2021/07/30 11:37:21;;;;;;;4.60;4.30;;;28.00;52.60;;;;;;4992201;28;20473;-56
2021/07/30 11:39:50;;;;;;;4.60;4.30;;;27.70;51.30;;;;;;4988862;28;20928;-57
2021/07/30 11:42:30;;;;;;;4.73;4.30;;;27.70;50.80;;;;;;4988282;28;20484;-58
2021/07/30 11:45:00;;;;;;;5.10;4.60;;;27.90;50.70;;;;;;4993832;28;20568;-56
2021/07/30 11:47:29;;;;;;;4.87;4.47;;;27.40;52.10;;;;;;4987627;28;20469;-56
2021/07/30 11:50:07;;;;;;;5.60;5.10;;;27.10;52.10;;;;;;4996823;28;20523;-55
2021/07/30 11:52:37;;;;;;;4.87;4.47;;;27.30;52.30;;;;;;4997453;28;20465;-55
2021/07/30 11:55:17;;;;;;;6.30;4.30;;;27.30;51.80;;;;;;4997728;28;20898;-50
2021/07/30 11:57:45;;;;;;;4.93;4.57;;;27.60;52.40;;;;;;4997978;28;20461;-53
2021/07/30 12:00:24;;;;;;;4.77;4.40;;;28.10;51.90;;;;;;5003646;28;20583;-57
2021/07/30 12:02:51;;;;;;;5.00;4.60;;;28.10;50.80;;;;;;5010085;28;20496;-59
2021/07/30 12:05:30;;;;;;;5.70;4.50;;;27.80;51.70;;;;;;4991087;28;20476;-58
2021/07/30 12:07:59;;;;;;;5.17;4.67;;;27.80;51.20;;;;;;4997311;28;20465;-57
2021/07/30 12:10:27;;;;;;;4.93;4.63;;;27.60;52.70;;;;;;4996545;28;20488;-52
2021/07/30 12:12:57;;;;;;;5.07;4.00;;;27.70;50.70;;;;;;4996316;28;20460;-54
2021/07/30 12:56:07;;;;;;;5.37;4.97;;;27.90;51.80;;;;;;4894408;23;20488;-58
2021/07/30 12:58:35;;;;;;;5.27;4.73;;;27.10;52.70;;;;;;5000472;28;20475;-58
2021/07/30 13:01:10;;;;;;;7.70;5.23;;;26.70;53.20;;;;;;4999567;28;20827;-57
2021/07/30 13:03:37;;;;;;;4.73;4.43;;;27.30;52.80;;;;;;4993928;28;20943;-57
2021/07/30 13:06:06;;;;;;;4.97;4.57;;;28.00;52.50;;;;;;4997332;28;20473;-58
2021/07/30 13:08:36;;;;;;;4.87;4.57;;;27.80;50.40;;;;;;4983953;28;20461;-57
2021/07/30 13:11:05;;;;;;;4.97;4.67;;;27.40;51.60;;;;;;5000753;28;20579;-58
2021/07/30 13:13:38;;;;;;;5.50;5.00;;;27.10;52.30;;;;;;5006409;28;20515;-57
2021/07/30 13:16:06;;;;;;;6.03;5.40;;;27.90;51.60;;;;;;5019240;28;20472;-58
2021/07/30 13:18:35;;;;;;;4.83;4.50;;;28.20;50.10;;;;;;5019156;28;20460;-58
2021/07/30 13:21:05;;;;;;;5.50;5.00;;;27.90;50.60;;;;;;5018328;28;20472;-58
2021/07/30 13:23:34;;;;;;;8.57;5.40;;;28.30;51.10;;;;;;4981172;28;20504;-59
2021/07/30 13:26:01;;;;;;;6.43;4.63;;;29.00;49.60;;;;;;4981149;28;20479;-59
2021/07/30 13:28:30;;;;;;;6.80;5.00;;;29.00;48.80;;;;;;4983544;28;20489;-58
2021/07/30 13:30:58;;;;;;;4.27;3.97;;;29.20;49.90;;;;;;4986689;28;20501;-59
2021/07/30 13:33:26;;;;;;;5.60;5.20;;;29.60;48.20;;;;;;4996333;28;20487;-57
2021/07/30 13:35:53;;;;;;;7.23;4.37;;;30.10;48.30;;;;;;4998667;28;20457;-57
2021/07/30 13:38:20;;;;;;;5.00;4.63;;;29.70;47.10;;;;;;4980125;28;20917;-58
2021/07/30 13:40:51;;;;;;;5.20;4.90;;;29.80;48.00;;;;;;4980798;28;20461;-57
2021/07/30 13:43:19;;;;;;;4.50;4.20;;;29.60;47.20;;;;;;4980374;28;20508;-58
2021/07/30 13:45:51;;;;;;;5.83;5.33;;;28.90;47.90;;;;;;4992442;28;20461;-58
2021/07/30 13:48:22;;;;;;;5.43;4.93;;;29.10;49.30;;;;;;4999719;28;20465;-59
2021/07/30 13:50:54;;;;;;;5.13;4.83;;;29.10;47.90;;;;;;5005929;28;20553;-58
2021/07/30 13:53:36;;;;;;;5.60;5.07;;;28.80;48.60;;;;;;5001023;28;20460;-57
2021/07/30 13:56:06;;;;;;;4.67;4.27;;;28.60;49.50;;;;;;5012037;28;20498;-59
2021/07/30 13:58:36;;;;;;;7.00;4.23;;;29.10;47.80;;;;;;5016914;28;20459;-58
2021/07/30 14:01:19;;;;;;;5.07;4.77;;;28.80;48.30;;;;;;5018798;28;20468;-58
2021/07/30 14:03:51;;;;;;;5.93;5.33;;;28.30;49.20;;;;;;4998653;28;20499;-59
2021/07/30 14:06:20;;;;;;;8.80;5.63;;;27.80;50.10;;;;;;5007290;28;20456;-59
2021/07/30 14:08:53;;;;;;;5.77;4.90;;;27.30;49.80;;;;;;5012759;28;20459;-57
2021/07/30 14:11:20;;;;;;;7.40;5.20;;;26.70;51.20;;;;;;4999389;28;20469;-58
2021/07/30 14:13:47;;;;;;;5.97;5.40;;;26.50;53.00;;;;;;5011286;28;20452;-55
2021/07/30 14:16:20;;;;;;;5.00;4.60;;;26.70;53.00;;;;;;5018559;28;20534;-57
2021/07/30 14:18:48;;;;;;;5.90;4.73;;;26.80;53.00;;;;;;5018493;28;20526;-58
2021/07/30 14:21:18;;;;;;;9.10;5.27;;;26.90;53.30;;;;;;5014891;28;20460;-57
2021/07/30 14:23:45;;;;;;;5.60;5.10;;;26.80;53.80;;;;;;4999304;28;20493;-58
2021/07/30 14:26:12;;;;;;;5.63;5.20;;;26.60;53.40;;;;;;4998713;28;20772;-58
2021/07/30 14:28:41;;;;;;;5.33;4.83;;;26.60;54.00;;;;;;4999076;28;20531;-58
2021/07/30 14:31:14;;;;;;;7.93;5.27;;;26.20;54.10;;;;;;4998800;28;20637;-58
2021/07/30 14:33:44;;;;;;;5.87;5.37;;;25.80;54.50;;;;;;4999297;28;20457;-58
2021/07/30 14:36:14;;;;;;;5.97;5.47;;;25.60;55.00;;;;;;4999063;28;20476;-58
2021/07/30 14:38:41;;;;;;;4.80;4.33;;;25.50;55.30;;;;;;5004657;28;20547;-57
2021/07/30 14:41:16;;;;;;;6.47;4.80;;;25.50;55.50;;;;;;5017849;28;20467;-57
2021/07/30 14:43:43;;;;;;;6.10;5.60;;;25.50;55.60;;;;;;5017925;28;20487;-56
2021/07/30 14:46:10;;;;;;;5.63;5.23;;;25.50;55.90;;;;;;5017935;28;20491;-57
2021/07/30 14:48:37;;;;;;;5.20;4.80;;;25.20;55.80;;;;;;5018310;28;20472;-57
2021/07/30 14:51:09;;;;;;;5.23;4.70;;;25.00;56.80;;;;;;5017644;28;20920;-55
2021/07/30 14:53:36;;;;;;;6.13;5.47;;;24.90;57.70;;;;;;5018240;28;20804;-58
2021/07/30 14:56:03;;;;;;;6.90;4.80;;;24.80;57.60;;;;;;5017795;28;20495;-57
2021/07/30 14:58:36;;;;;;;5.00;4.60;;;24.70;57.40;;;;;;5017888;28;20520;-56
2021/07/30 15:01:05;;;;;;;6.80;5.37;;;24.50;56.80;;;;;;5018186;28;20467;-57
2021/07/30 15:03:35;;;;;;;5.70;5.30;;;24.40;57.40;;;;;;5011513;28;20492;-55
2021/07/30 15:06:05;;;;;;;6.23;5.77;;;24.40;57.60;;;;;;4999511;28;20476;-57
2021/07/30 15:08:33;;;;;;;6.10;5.60;;;24.50;57.80;;;;;;4998213;28;20453;-56
2021/07/30 15:11:02;;;;;;;5.73;5.23;;;24.50;57.60;;;;;;4998191;28;20504;-57
2021/07/30 15:13:29;;;;;;;5.60;5.10;;;24.50;57.60;;;;;;4998456;28;20461;-55
2021/07/30 15:15:56;;;;;;;6.03;5.17;;;24.50;58.20;;;;;;4998269;28;20469;-56
2021/07/30 15:18:23;;;;;;;4.73;4.33;;;24.50;58.10;;;;;;5016869;28;20470;-58
2021/07/30 15:20:51;;;;;;;5.77;5.10;;;24.40;58.40;;;;;;5030710;28;20943;-57
2021/07/30 15:23:22;;;;;;;5.93;5.33;;;24.30;58.70;;;;;;4997041;28;20773;-58
2021/07/30 15:25:49;;;;;;;5.47;5.07;;;24.30;58.90;;;;;;4996483;28;20545;-56
2021/07/30 15:28:16;;;;;;;6.13;5.63;;;24.20;59.10;;;;;;4997521;28;20898;-57
2021/07/30 15:30:46;;;;;;;5.90;5.40;;;24.20;59.30;;;;;;4998264;28;20523;-57